Time;durP1;ratioP1;P1;durP2;ratioP2;P2;SDS_P1;SDS_P2;PMS_P1;PMS_P2;Temp;Humidity;BMP_temperature;BMP_pressure;BME280_temperature;BME280_humidity;BME280_pressure;Samples;Min_cycle;Max_cycle;Signal;HPM_P1;HPM_P2
2022/08/23 00:01:23;;;;;;;6.18;3.67;;;17.10;99.90;;;;;;5093421;27;20050;-89
2022/08/23 00:03:50;;;;;;;7.60;3.33;;;17.10;99.90;;;;;;5093478;27;20043;-89
2022/08/23 00:06:16;;;;;;;9.48;3.33;;;17.00;99.90;;;;;;5110188;27;20054;-90
2022/08/23 00:08:44;;;;;;;8.25;3.28;;;17.00;99.90;;;;;;5093241;27;20269;-89
2022/08/23 00:11:37;;;;;;;9.02;3.65;;;16.90;99.90;;;;;;5110292;27;20414;-89
2022/08/23 00:14:21;;;;;;;5.72;3.10;;;16.90;99.90;;;;;;5109659;27;20035;-88
2022/08/23 00:16:47;;;;;;;7.63;3.25;;;16.90;99.90;;;;;;5109700;27;20081;-89
2022/08/23 00:19:15;;;;;;;8.07;2.88;;;16.80;99.90;;;;;;5092576;27;20042;-90
2022/08/23 00:21:42;;;;;;;6.05;2.92;;;16.80;99.90;;;;;;5093125;27;20047;-89
2022/08/23 00:24:10;;;;;;;8.73;3.20;;;16.80;99.90;;;;;;5092987;27;20485;-91
2022/08/23 00:26:53;;;;;;;8.15;3.13;;;16.90;99.90;;;;;;5093647;27;20086;-89
2022/08/23 00:29:21;;;;;;;6.90;3.28;;;16.80;99.90;;;;;;5116313;27;20043;-90
2022/08/23 00:31:46;;;;;;;7.88;3.13;;;17.00;99.90;;;;;;5129963;27;20050;-89
2022/08/23 00:34:12;;;;;;;6.55;2.60;;;16.70;99.90;;;;;;5101877;27;20043;-88
2022/08/23 00:36:39;;;;;;;6.65;3.55;;;16.70;99.90;;;;;;5095496;27;20425;-89
2022/08/23 00:39:05;;;;;;;11.43;3.20;;;16.70;99.90;;;;;;5110448;27;20079;-90
2022/08/23 00:41:33;;;;;;;5.03;2.55;;;16.60;99.90;;;;;;5109480;27;20105;-89
2022/08/23 00:49:42;;;;;;;7.95;2.50;;;16.50;99.90;;;;;;5109885;27;20398;-88
2022/08/23 00:52:39;;;;;;;5.90;3.03;;;16.50;99.90;;;;;;5092576;27;20076;-88
2022/08/23 00:55:05;;;;;;;8.38;2.70;;;16.50;99.90;;;;;;5108855;27;20039;-89
2022/08/23 00:57:32;;;;;;;6.55;2.65;;;16.50;99.90;;;;;;5091912;27;20039;-89
2022/08/23 00:59:59;;;;;;;6.10;2.85;;;16.40;99.90;;;;;;5075100;27;20051;-89
2022/08/23 01:02:25;;;;;;;7.25;3.15;;;16.40;99.90;;;;;;5109387;27;20423;-88
2022/08/23 01:04:56;;;;;;;5.70;2.63;;;16.40;99.90;;;;;;5075991;27;20035;-88
2022/08/23 01:07:46;;;;;;;6.38;3.20;;;16.40;99.90;;;;;;5108305;27;20085;-88
2022/08/23 01:10:29;;;;;;;6.63;3.13;;;16.30;99.90;;;;;;5107886;27;20051;-88
2022/08/23 01:13:14;;;;;;;5.90;3.20;;;16.30;99.90;;;;;;5109627;27;20400;-89
2022/08/23 01:15:47;;;;;;;8.55;3.55;;;16.30;99.90;;;;;;5092587;28;20050;-88
2022/08/23 01:18:16;;;;;;;5.72;3.90;;;16.20;99.90;;;;;;5109533;27;20094;-89
2022/08/23 01:21:13;;;;;;;8.52;4.28;;;16.20;99.90;;;;;;5091502;27;20088;-89
2022/08/23 01:23:43;;;;;;;9.02;4.20;;;16.10;99.90;;;;;;5086438;28;20094;-88
2022/08/23 01:26:10;;;;;;;12.05;3.70;;;16.10;99.90;;;;;;5092292;28;20032;-89
2022/08/23 01:28:39;;;;;;;5.53;3.20;;;16.10;99.90;;;;;;5108750;28;20552;-88
2022/08/23 01:31:06;;;;;;;9.48;3.13;;;16.70;99.90;;;;;;5075715;28;20035;-88
2022/08/23 01:33:32;;;;;;;9.00;4.57;;;16.10;99.90;;;;;;5109474;28;20424;-89
2022/08/23 01:35:59;;;;;;;7.97;3.88;;;16.00;99.90;;;;;;5075324;28;20136;-88
2022/08/23 01:38:26;;;;;;;8.65;3.92;;;16.00;99.90;;;;;;5109667;27;20047;-89
2022/08/23 01:40:52;;;;;;;5.82;3.78;;;16.00;99.90;;;;;;5112786;27;20443;-89
2022/08/23 01:43:20;;;;;;;8.15;4.15;;;16.10;99.90;;;;;;5096344;27;20103;-90
2022/08/23 01:45:47;;;;;;;6.47;4.75;;;16.00;99.90;;;;;;5112889;27;20062;-89
2022/08/23 01:48:14;;;;;;;8.20;4.72;;;16.50;99.90;;;;;;5113136;27;20478;-89
2022/08/23 01:50:40;;;;;;;10.90;4.95;;;15.90;99.90;;;;;;5095971;27;20054;-87
2022/08/23 01:53:06;;;;;;;8.65;4.22;;;15.90;99.90;;;;;;5079462;27;20039;-89
2022/08/23 01:55:33;;;;;;;7.15;4.55;;;15.90;99.90;;;;;;5096519;27;20043;-89
2022/08/23 01:58:01;;;;;;;8.75;4.95;;;15.90;99.90;;;;;;5096352;27;20035;-89
2022/08/23 02:00:34;;;;;;;6.20;4.28;;;15.80;99.90;;;;;;5096160;27;20398;-89
2022/08/23 02:03:01;;;;;;;8.27;3.90;;;15.80;99.90;;;;;;5112437;27;20043;-89
2022/08/23 02:05:27;;;;;;;5.57;3.55;;;15.80;99.90;;;;;;5112904;27;20044;-89
2022/08/23 02:07:53;;;;;;;10.43;4.32;;;15.80;99.90;;;;;;5095778;27;20043;-88
2022/08/23 02:10:19;;;;;;;6.50;3.90;;;15.80;99.90;;;;;;5112133;27;20049;-89
2022/08/23 02:12:46;;;;;;;9.23;4.05;;;15.80;99.90;;;;;;5095268;27;20051;-89
2022/08/23 02:15:13;;;;;;;13.15;5.40;;;15.80;99.90;;;;;;5095242;27;20126;-89
2022/08/23 02:17:39;;;;;;;8.10;4.07;;;15.90;99.90;;;;;;5095771;27;20043;-88
2022/08/23 02:20:06;;;;;;;6.47;4.97;;;15.70;99.90;;;;;;5078676;27;20047;-89
2022/08/23 02:22:32;;;;;;;6.80;4.30;;;15.70;99.90;;;;;;5113616;27;20122;-89
2022/08/23 02:24:58;;;;;;;17.10;6.10;;;15.70;99.90;;;;;;5112730;27;20370;-89
2022/08/23 02:27:24;;;;;;;11.98;5.72;;;15.70;99.90;;;;;;5078319;27;20051;-88
2022/08/23 02:29:50;;;;;;;8.02;4.55;;;16.30;99.90;;;;;;5095604;27;20039;-90
2022/08/23 02:32:16;;;;;;;10.98;6.07;;;15.70;99.90;;;;;;5077866;27;20143;-89
2022/08/23 02:34:44;;;;;;;10.13;6.05;;;15.70;99.90;;;;;;5078934;27;20050;-88
2022/08/23 02:37:12;;;;;;;9.05;5.82;;;15.70;99.90;;;;;;5111262;28;20092;-90
2022/08/23 02:39:39;;;;;;;10.07;5.75;;;16.20;99.90;;;;;;5077774;28;20043;-89
2022/08/23 02:42:06;;;;;;;9.48;5.90;;;15.70;99.90;;;;;;5110147;28;20058;-89
2022/08/23 02:44:33;;;;;;;7.57;5.20;;;15.70;99.90;;;;;;5093510;28;20415;-88
2022/08/23 02:47:03;;;;;;;9.18;5.63;;;15.60;99.90;;;;;;5094320;28;20050;-89
2022/08/23 02:49:29;;;;;;;9.68;6.90;;;15.60;99.90;;;;;;5093637;28;20607;-90
2022/08/23 02:51:55;;;;;;;9.07;4.80;;;15.80;99.90;;;;;;5077351;28;20047;-89
2022/08/23 02:54:22;;;;;;;12.50;5.57;;;15.60;99.90;;;;;;5099012;28;20187;-89
2022/08/23 02:56:47;;;;;;;8.02;5.22;;;15.60;99.90;;;;;;5103421;28;20051;-88
2022/08/23 02:59:13;;;;;;;13.10;6.10;;;15.60;99.90;;;;;;5084953;28;20045;-88
2022/08/23 03:01:39;;;;;;;7.78;4.85;;;15.50;99.90;;;;;;5102271;28;20061;-88
2022/08/23 03:04:10;;;;;;;7.43;5.28;;;15.50;99.90;;;;;;5081940;28;20062;-89
2022/08/23 03:06:36;;;;;;;8.70;6.28;;;16.50;99.90;;;;;;5112230;28;20035;-89
2022/08/23 03:09:04;;;;;;;10.55;6.60;;;16.30;99.90;;;;;;5076995;28;20093;-89
2022/08/23 03:11:30;;;;;;;9.77;6.40;;;15.50;99.90;;;;;;5093540;28;20472;-89
2022/08/23 03:13:56;;;;;;;6.72;6.00;;;15.40;99.90;;;;;;5110846;28;20043;-89
2022/08/23 03:16:23;;;;;;;6.88;6.07;;;15.50;99.90;;;;;;5059627;28;20048;-89
2022/08/23 03:18:49;;;;;;;6.70;5.63;;;15.50;99.90;;;;;;5092743;28;20047;-90
2022/08/23 03:21:15;;;;;;;6.95;5.65;;;15.80;99.90;;;;;;5093192;28;20088;-89
2022/08/23 03:23:41;;;;;;;10.98;6.32;;;15.40;99.90;;;;;;5093189;28;20160;-89
2022/08/23 03:26:10;;;;;;;7.88;6.30;;;15.30;99.90;;;;;;5093451;28;20482;-89
2022/08/23 03:28:38;;;;;;;8.75;5.45;;;15.30;99.90;;;;;;5093381;28;20507;-89
2022/08/23 03:31:07;;;;;;;9.88;5.88;;;15.30;99.90;;;;;;5110344;28;20050;-88
2022/08/23 03:33:33;;;;;;;6.97;5.60;;;15.70;99.90;;;;;;5109927;28;20039;-90
2022/08/23 03:36:00;;;;;;;7.47;5.22;;;14.60;99.90;;;;;;5077007;28;20482;-89
2022/08/23 03:38:26;;;;;;;8.60;5.88;;;15.30;99.90;;;;;;5018911;27;1656183;-89
2022/08/23 03:40:52;;;;;;;9.48;6.40;;;15.20;99.90;;;;;;5110837;27;20410;-89
2022/08/23 03:43:19;;;;;;;7.70;4.78;;;15.20;99.90;;;;;;5096844;27;20039;-86
2022/08/23 03:45:45;;;;;;;8.80;6.68;;;15.20;99.90;;;;;;5100373;27;20072;-89
2022/08/23 03:48:11;;;;;;;11.52;5.88;;;15.20;99.90;;;;;;5067152;27;20094;-89
2022/08/23 03:50:36;;;;;;;8.95;5.93;;;15.80;99.90;;;;;;5083304;27;20490;-89
2022/08/23 03:53:05;;;;;;;8.77;6.68;;;15.20;99.90;;;;;;5134574;27;20043;-89
2022/08/23 03:55:32;;;;;;;7.88;5.85;;;15.20;99.90;;;;;;5099469;27;20138;-89
2022/08/23 03:57:59;;;;;;;10.18;6.03;;;15.20;99.90;;;;;;5116312;27;20047;-88
2022/08/23 04:00:25;;;;;;;10.20;7.10;;;15.20;99.90;;;;;;5099068;27;20039;-89
2022/08/23 04:02:51;;;;;;;8.00;5.72;;;15.10;99.90;;;;;;5097439;27;20480;-87
2022/08/23 04:05:17;;;;;;;9.43;5.82;;;15.10;99.90;;;;;;5082457;27;20101;-88
2022/08/23 04:07:46;;;;;;;8.68;6.15;;;15.10;99.90;;;;;;5133712;27;20046;-88
2022/08/23 04:10:14;;;;;;;7.03;5.85;;;15.10;99.90;;;;;;5081546;27;20047;-89
2022/08/23 04:12:41;;;;;;;9.10;7.35;;;15.10;99.90;;;;;;5081818;27;20043;-88
2022/08/23 04:15:08;;;;;;;8.13;6.32;;;15.10;99.90;;;;;;5114101;27;20159;-89
2022/08/23 04:17:35;;;;;;;6.40;5.03;;;15.10;99.90;;;;;;5116519;27;20383;-88
2022/08/23 04:20:02;;;;;;;9.95;5.32;;;15.30;99.90;;;;;;5081373;27;20039;-89
2022/08/23 04:22:28;;;;;;;12.85;6.65;;;15.00;99.90;;;;;;5082700;27;20082;-89
2022/08/23 04:24:54;;;;;;;9.18;6.07;;;15.00;99.90;;;;;;5111486;27;20130;-89
2022/08/23 04:27:21;;;;;;;10.70;6.47;;;15.90;99.90;;;;;;5092581;27;20050;-89
2022/08/23 04:29:47;;;;;;;9.73;5.68;;;15.10;99.90;;;;;;5109290;27;20051;-89
2022/08/23 04:32:14;;;;;;;8.82;5.95;;;15.00;99.90;;;;;;5091303;27;20103;-89
2022/08/23 04:34:41;;;;;;;7.15;6.20;;;15.00;99.90;;;;;;5092248;27;20043;-88
2022/08/23 04:37:08;;;;;;;11.00;5.60;;;15.50;99.90;;;;;;5071008;28;20075;-89
2022/08/23 04:42:16;;;;;;;9.18;7.30;;;15.00;99.90;;;;;;5089871;28;20047;-89
2022/08/23 04:42:22;;;;;;;7.88;5.85;;;14.90;99.90;;;;;;5105579;28;20044;-89
2022/08/23 04:44:48;;;;;;;9.68;6.50;;;14.90;99.90;;;;;;5088542;28;20044;-88
2022/08/23 04:47:14;;;;;;;9.98;6.50;;;15.30;99.90;;;;;;5089211;28;20469;-88
2022/08/23 04:49:40;;;;;;;9.05;5.93;;;14.90;99.90;;;;;;5071578;28;20081;-88
2022/08/23 04:52:06;;;;;;;7.60;6.22;;;14.90;99.90;;;;;;5072432;28;20039;-88
2022/08/23 04:54:31;;;;;;;13.70;6.00;;;14.30;99.90;;;;;;5088367;28;20032;-88
2022/08/23 04:56:57;;;;;;;9.43;6.28;;;15.00;99.90;;;;;;5105629;28;20101;-88
2022/08/23 04:59:23;;;;;;;6.53;5.50;;;15.00;99.90;;;;;;5105172;28;20039;-88
2022/08/23 05:01:49;;;;;;;7.28;6.57;;;15.00;99.90;;;;;;5088262;28;20058;-88
2022/08/23 05:04:16;;;;;;;8.25;6.43;;;15.70;99.90;;;;;;5105239;28;20035;-89
2022/08/23 05:06:42;;;;;;;7.80;6.35;;;15.10;99.90;;;;;;5105209;28;20035;-90
2022/08/23 05:09:08;;;;;;;10.20;6.65;;;15.20;99.90;;;;;;5072490;28;20040;-89
2022/08/23 05:11:33;;;;;;;10.93;8.50;;;15.20;99.90;;;;;;5072068;28;20084;-88
2022/08/23 05:13:59;;;;;;;9.77;7.00;;;15.20;99.90;;;;;;5111662;28;20063;-88
2022/08/23 05:16:25;;;;;;;10.23;7.85;;;15.30;99.90;;;;;;5108102;28;20036;-89
2022/08/23 05:18:54;;;;;;;13.85;9.80;;;15.30;99.90;;;;;;5080620;28;20478;-90
2022/08/23 05:21:22;;;;;;;10.85;9.15;;;15.90;99.90;;;;;;5073868;28;20039;-88
2022/08/23 05:23:48;;;;;;;13.23;9.45;;;15.50;99.90;;;;;;5105376;28;20103;-88
2022/08/23 05:26:13;;;;;;;14.55;10.48;;;15.50;99.90;;;;;;5088749;28;20085;-89
2022/08/23 05:28:42;;;;;;;15.65;11.70;;;15.60;99.90;;;;;;5088459;28;20039;-89
2022/08/23 05:31:11;;;;;;;17.52;11.88;;;16.50;99.90;;;;;;5088487;28;20491;-89
2022/08/23 05:33:39;;;;;;;17.30;12.05;;;16.70;99.90;;;;;;5087812;28;20474;-90
2022/08/23 05:36:05;;;;;;;19.05;13.35;;;16.40;99.90;;;;;;5105276;28;20126;-88
2022/08/23 05:38:32;;;;;;;17.25;12.27;;;15.90;99.90;;;;;;5105009;28;20385;-88
2022/08/23 05:41:01;;;;;;;22.65;13.32;;;16.00;99.90;;;;;;5087909;28;20097;-89
2022/08/23 05:43:27;;;;;;;22.50;14.38;;;16.10;99.90;;;;;;5088625;28;20139;-89
2022/08/23 05:46:14;;;;;;;14.98;12.18;;;16.10;99.90;;;;;;5087880;28;20079;-89
2022/08/23 05:48:42;;;;;;;17.67;13.43;;;16.20;99.90;;;;;;5105093;28;20490;-89
2022/08/23 05:51:19;;;;;;;15.85;12.30;;;16.20;99.90;;;;;;5071313;28;20044;-89
2022/08/23 05:53:46;;;;;;;17.27;13.25;;;16.30;99.90;;;;;;5104668;28;20598;-89
2022/08/23 05:56:14;;;;;;;17.95;13.50;;;16.30;99.90;;;;;;5105125;28;20044;-89
2022/08/23 05:58:40;;;;;;;23.63;12.93;;;16.40;99.90;;;;;;5086992;28;20106;-89
2022/08/23 06:01:07;;;;;;;19.20;14.45;;;16.40;99.90;;;;;;5071490;28;20511;-89
2022/08/23 06:03:32;;;;;;;26.38;14.18;;;16.60;99.90;;;;;;5105025;28;20550;-89
2022/08/23 06:05:59;;;;;;;23.50;13.85;;;16.70;99.90;;;;;;5104054;28;20194;-89
2022/08/23 06:08:26;;;;;;;20.08;13.52;;;16.80;99.90;;;;;;5087913;28;20040;-89
2022/08/23 06:11:10;;;;;;;26.27;12.70;;;16.90;99.90;;;;;;5087822;28;20063;-89
2022/08/23 06:13:48;;;;;;;25.42;12.18;;;17.10;99.90;;;;;;5105301;28;20428;-89
2022/08/23 06:16:17;;;;;;;16.27;12.13;;;17.30;99.90;;;;;;5104725;28;20441;-91
2022/08/23 06:18:44;;;;;;;17.75;12.75;;;17.40;99.90;;;;;;5071074;28;20050;-89
2022/08/23 06:21:11;;;;;;;16.35;12.23;;;17.50;99.90;;;;;;5104834;28;20051;-90
2022/08/23 06:23:38;;;;;;;14.68;12.75;;;17.60;99.90;;;;;;5070935;28;20487;-90
2022/08/23 06:26:14;;;;;;;16.30;11.57;;;17.70;99.90;;;;;;5091585;28;20119;-90
2022/08/23 06:28:40;;;;;;;16.88;11.52;;;17.70;99.90;;;;;;5108623;28;20483;-90
2022/08/23 06:31:06;;;;;;;17.15;12.13;;;17.80;99.90;;;;;;5092193;28;20100;-89
2022/08/23 06:33:32;;;;;;;18.52;11.48;;;17.30;99.90;;;;;;5091323;28;20406;-90
2022/08/23 06:36:08;;;;;;;17.38;11.40;;;18.30;99.90;;;;;;5107998;28;20046;-90
2022/08/23 06:38:35;;;;;;;17.77;10.70;;;18.00;99.90;;;;;;5086790;28;20511;-89
2022/08/23 06:41:04;;;;;;;13.68;10.70;;;18.00;99.90;;;;;;5091634;28;20044;-89
2022/08/23 06:43:30;;;;;;;15.80;10.32;;;18.20;99.90;;;;;;5109371;28;20043;-90
2022/08/23 06:46:08;;;;;;;18.02;10.60;;;18.20;99.90;;;;;;5091401;28;20530;-89
2022/08/23 06:48:34;;;;;;;15.88;9.57;;;18.30;99.90;;;;;;5091653;28;20398;-89
2022/08/23 06:50:59;;;;;;;20.13;10.07;;;18.40;99.90;;;;;;5091543;28;20040;-89
2022/08/23 06:53:25;;;;;;;15.70;9.65;;;18.60;99.90;;;;;;5109430;28;20061;-89
2022/08/23 06:55:51;;;;;;;14.40;8.90;;;18.70;99.90;;;;;;5076160;28;20082;-88
2022/08/23 06:58:17;;;;;;;9.35;8.27;;;19.10;99.90;;;;;;5093175;28;20048;-89
2022/08/23 07:00:43;;;;;;;14.55;8.30;;;19.00;99.90;;;;;;5094127;28;20083;-89
2022/08/23 07:03:08;;;;;;;11.18;8.80;;;19.10;99.90;;;;;;5075231;28;20039;-90
2022/08/23 07:05:34;;;;;;;8.45;7.18;;;19.20;99.90;;;;;;5075291;28;20048;-89
2022/08/23 07:08:00;;;;;;;10.18;7.28;;;19.30;99.90;;;;;;5093120;28;20031;-90
2022/08/23 07:10:26;;;;;;;14.05;8.00;;;19.40;99.90;;;;;;5092117;28;20096;-91
2022/08/23 07:12:52;;;;;;;8.02;6.25;;;19.60;99.90;;;;;;5074663;28;20479;-88
2022/08/23 07:15:18;;;;;;;10.75;7.05;;;19.70;99.90;;;;;;5091034;28;20055;-90
2022/08/23 07:17:43;;;;;;;10.57;5.68;;;19.90;99.90;;;;;;5075140;28;20055;-90
2022/08/23 07:20:09;;;;;;;9.90;6.85;;;19.90;99.90;;;;;;5057156;28;20035;-90
2022/08/23 07:22:35;;;;;;;8.68;6.65;;;20.00;99.90;;;;;;5074605;28;20039;-90
2022/08/23 07:25:02;;;;;;;9.05;5.97;;;20.20;99.90;;;;;;5108458;28;20089;-90
2022/08/23 07:27:28;;;;;;;9.65;6.57;;;20.30;99.90;;;;;;5107816;28;20499;-90
2022/08/23 07:29:54;;;;;;;13.43;5.90;;;20.40;99.90;;;;;;5074212;28;20048;-90
2022/08/23 07:32:19;;;;;;;6.53;5.57;;;20.50;99.90;;;;;;5091410;28;20040;-90
2022/08/23 07:34:45;;;;;;;8.73;5.43;;;20.70;99.90;;;;;;5110978;28;20127;-89
2022/08/23 07:37:12;;;;;;;10.50;5.38;;;20.40;99.90;;;;;;5077438;28;20068;-90
2022/08/23 07:39:38;;;;;;;9.75;5.93;;;20.90;99.90;;;;;;5086118;28;20043;-91
2022/08/23 07:42:04;;;;;;;7.18;5.90;;;20.90;99.90;;;;;;5078043;28;20077;-90
2022/08/23 07:44:30;;;;;;;13.05;5.60;;;21.10;99.90;;;;;;5113644;28;20148;-90
2022/08/23 07:46:56;;;;;;;12.05;5.40;;;21.10;99.90;;;;;;5083262;28;20047;-90
2022/08/23 07:49:22;;;;;;;8.25;5.25;;;21.30;99.90;;;;;;5114701;28;20079;-91
2022/08/23 07:51:50;;;;;;;7.38;4.57;;;21.30;99.90;;;;;;5081705;28;20054;-90
2022/08/23 07:54:17;;;;;;;10.40;4.95;;;21.30;99.90;;;;;;5093710;28;20184;-91
2022/08/23 07:56:43;;;;;;;7.30;4.65;;;21.40;99.90;;;;;;5092905;28;20032;-91
2022/08/23 07:59:10;;;;;;;9.43;4.28;;;21.50;99.90;;;;;;5074377;28;20093;-89
2022/08/23 08:01:36;;;;;;;7.60;4.57;;;21.60;99.90;;;;;;5090334;28;20066;-91
2022/08/23 08:04:03;;;;;;;7.35;4.47;;;21.70;99.90;;;;;;5074232;28;20047;-92
2022/08/23 08:06:42;;;;;;;9.70;4.53;;;21.90;99.90;;;;;;5107409;28;20044;-92
2022/08/23 08:09:11;;;;;;;8.80;4.75;;;22.00;99.90;;;;;;5091172;28;20036;-92
2022/08/23 08:11:40;;;;;;;6.68;4.90;;;22.00;99.90;;;;;;5089681;28;20131;-91
2022/08/23 08:14:07;;;;;;;7.72;4.22;;;22.10;99.90;;;;;;5106924;28;20066;-91
2022/08/23 08:16:37;;;;;;;7.28;4.25;;;22.30;99.90;;;;;;5090146;28;20043;-90
2022/08/23 08:19:05;;;;;;;6.32;4.35;;;22.40;99.90;;;;;;5089505;28;20039;-90
2022/08/23 08:21:32;;;;;;;6.85;3.72;;;22.50;99.90;;;;;;5107055;28;20044;-92
2022/08/23 08:23:59;;;;;;;6.35;3.92;;;22.60;99.90;;;;;;5089823;28;20105;-91
2022/08/23 08:26:26;;;;;;;6.22;3.92;;;22.70;99.90;;;;;;5056746;28;20050;-90
2022/08/23 08:28:57;;;;;;;7.47;4.82;;;22.80;99.90;;;;;;5089267;28;20089;-91
2022/08/23 08:31:25;;;;;;;6.55;3.80;;;22.90;99.90;;;;;;5089787;28;20047;-92
2022/08/23 08:33:51;;;;;;;9.10;4.25;;;23.40;99.90;;;;;;5106997;28;20039;-91
2022/08/23 08:36:34;;;;;;;8.30;4.38;;;22.90;99.90;;;;;;5106677;27;20051;-90
2022/08/23 08:39:01;;;;;;;4.85;3.67;;;23.30;99.90;;;;;;5093064;27;20050;-91
2022/08/23 08:41:51;;;;;;;5.38;2.90;;;23.30;99.90;;;;;;5077310;27;20139;-92
2022/08/23 08:44:49;;;;;;;5.72;3.10;;;23.40;99.90;;;;;;5111620;27;20421;-91
2022/08/23 08:47:37;;;;;;;8.35;4.25;;;23.50;99.90;;;;;;5095114;27;20082;-91
2022/08/23 08:50:14;;;;;;;5.60;3.75;;;23.60;99.90;;;;;;5092851;27;20073;-91
2022/08/23 08:53:12;;;;;;;9.95;3.65;;;23.70;99.90;;;;;;5110419;27;20053;-91
2022/08/23 08:55:48;;;;;;;6.13;3.05;;;23.80;99.90;;;;;;5085725;27;20146;-91
2022/08/23 08:58:27;;;;;;;4.25;2.55;;;24.00;99.90;;;;;;5109198;27;20509;-92
2022/08/23 09:00:54;;;;;;;5.40;2.80;;;24.20;99.90;;;;;;5110300;27;20086;-91
2022/08/23 09:03:21;;;;;;;4.93;2.45;;;24.30;99.90;;;;;;5109827;27;20550;-91
2022/08/23 09:06:15;;;;;;;5.55;3.20;;;24.40;99.90;;;;;;5059513;28;20267;-92
2022/08/23 09:09:09;;;;;;;3.40;2.33;;;24.60;99.90;;;;;;5100189;27;20053;-92
2022/08/23 09:11:57;;;;;;;7.82;2.30;;;24.80;99.90;;;;;;5109143;27;20046;-91
2022/08/23 09:14:48;;;;;;;3.42;2.22;;;24.90;99.90;;;;;;5092824;27;20663;-91
2022/08/23 09:17:30;;;;;;;5.25;2.05;;;25.00;99.90;;;;;;5109739;27;20047;-92
2022/08/23 09:20:01;;;;;;;4.60;2.30;;;25.20;99.90;;;;;;5110211;27;20050;-91
2022/08/23 09:22:36;;;;;;;3.53;2.25;;;25.30;99.90;;;;;;5109981;28;20055;-91
2022/08/23 09:25:03;;;;;;;6.72;2.40;;;25.40;99.90;;;;;;5109495;28;20096;-92
2022/08/23 09:27:30;;;;;;;3.95;1.85;;;25.50;99.90;;;;;;5092188;28;20046;-92
2022/08/23 09:29:59;;;;;;;3.47;1.85;;;25.60;99.90;;;;;;5092595;28;20535;-92
2022/08/23 09:32:34;;;;;;;7.30;2.17;;;25.70;99.90;;;;;;5109961;28;20104;-91
2022/08/23 09:35:23;;;;;;;6.05;1.70;;;25.80;99.90;;;;;;5110085;28;20500;-92
2022/08/23 09:37:52;;;;;;;4.40;2.00;;;26.00;99.90;;;;;;5109076;28;20055;-93
2022/08/23 09:40:35;;;;;;;4.53;1.45;;;26.10;99.90;;;;;;5109728;28;20043;-91
2022/08/23 09:43:10;;;;;;;5.88;1.80;;;26.20;99.90;;;;;;5092718;28;20178;-91
2022/08/23 09:45:39;;;;;;;2.95;1.80;;;26.20;99.60;;;;;;5109640;28;20054;-92
2022/08/23 09:48:06;;;;;;;5.15;1.67;;;26.30;99.90;;;;;;5092371;28;20305;-92
2022/08/23 09:50:38;;;;;;;5.43;1.67;;;26.30;99.80;;;;;;5075750;28;20086;-91
2022/08/23 09:53:13;;;;;;;10.65;2.67;;;26.40;99.30;;;;;;5110705;28;20036;-90
2022/08/23 09:55:43;;;;;;;3.67;1.42;;;26.30;99.30;;;;;;5097739;28;20387;-91
2022/08/23 09:58:37;;;;;;;5.57;1.73;;;26.60;99.30;;;;;;5097211;27;20671;-90
2022/08/23 10:01:10;;;;;;;3.67;1.60;;;26.70;98.10;;;;;;5096834;27;20496;-91
2022/08/23 10:03:36;;;;;;;4.68;1.30;;;26.80;98.00;;;;;;5104099;27;20156;-91
2022/08/23 10:06:03;;;;;;;3.72;1.35;;;26.90;97.00;;;;;;5095759;27;20035;-90
2022/08/23 10:08:39;;;;;;;5.18;2.17;;;26.90;96.80;;;;;;5092717;27;20039;-92
2022/08/23 10:11:24;;;;;;;5.13;1.35;;;26.90;96.60;;;;;;5105338;27;20131;-90
2022/08/23 10:13:52;;;;;;;4.97;2.33;;;27.10;97.30;;;;;;5103532;27;20072;-91
2022/08/23 10:16:32;;;;;;;3.38;1.90;;;27.20;97.20;;;;;;5068134;27;20035;-91
2022/08/23 10:19:14;;;;;;;4.65;1.70;;;27.30;96.70;;;;;;5099927;27;20046;-91
2022/08/23 10:22:15;;;;;;;4.40;1.65;;;27.40;96.80;;;;;;5099502;27;20039;-91
2022/08/23 10:25:10;;;;;;;7.63;1.70;;;27.50;96.90;;;;;;5078644;27;20058;-90
2022/08/23 10:31:05;;;;;;;4.82;1.90;;;27.90;95.10;;;;;;5115594;27;20049;-91
2022/08/23 10:33:49;;;;;;;4.93;2.03;;;28.00;93.90;;;;;;5097406;27;20043;-91
2022/08/23 10:36:28;;;;;;;8.10;2.20;;;28.10;93.30;;;;;;5098641;27;20047;-92
2022/08/23 10:38:57;;;;;;;5.53;1.60;;;28.30;93.40;;;;;;5098673;27;20054;-92
2022/08/23 10:42:08;;;;;;;7.32;1.58;;;28.40;93.90;;;;;;5098589;27;20047;-92
2022/08/23 10:44:46;;;;;;;4.55;2.42;;;28.50;91.90;;;;;;5009614;27;20060;-91
2022/08/23 10:47:41;;;;;;;7.20;1.77;;;28.60;95.50;;;;;;5098082;27;20057;-92
2022/08/23 10:50:14;;;;;;;5.10;2.17;;;28.70;94.90;;;;;;5097114;27;20047;-91
2022/08/23 10:52:50;;;;;;;3.08;1.73;;;28.50;95.00;;;;;;5097229;27;20035;-92
2022/08/23 10:55:53;;;;;;;17.58;2.35;;;28.90;94.10;;;;;;5096724;27;20043;-90
2022/08/23 10:58:22;;;;;;;3.35;1.83;;;28.90;91.20;;;;;;5113129;27;20121;-91
2022/08/23 11:00:50;;;;;;;4.82;1.83;;;28.90;92.30;;;;;;5096558;27;20409;-91
2022/08/23 11:03:36;;;;;;;5.35;1.98;;;28.80;91.20;;;;;;5079894;27;20047;-93
2022/08/23 11:06:47;;;;;;;6.10;2.33;;;28.80;88.00;;;;;;5096788;27;20047;-91
2022/08/23 11:09:16;;;;;;;3.28;1.55;;;28.80;82.80;;;;;;5091972;27;20055;-90
2022/08/23 11:12:04;;;;;;;6.93;1.83;;;28.80;87.80;;;;;;5097636;27;20047;-92
2022/08/23 11:14:30;;;;;;;5.03;1.92;;;28.80;87.00;;;;;;5098888;27;20043;-91
2022/08/23 11:17:03;;;;;;;7.00;1.98;;;28.80;88.50;;;;;;5100340;27;20050;-91
2022/08/23 11:19:49;;;;;;;5.82;2.00;;;28.80;87.10;;;;;;5107156;27;20039;-90
2022/08/23 11:22:24;;;;;;;5.38;2.17;;;28.90;89.80;;;;;;5105381;27;20051;-91
2022/08/23 11:24:54;;;;;;;3.63;1.40;;;29.00;80.10;;;;;;5101821;27;20043;-91
2022/08/23 11:27:37;;;;;;;2.22;1.30;;;29.10;81.50;;;;;;5097640;27;20043;-92
2022/08/23 11:30:30;;;;;;;5.90;1.45;;;29.20;69.50;;;;;;5098129;27;20544;-90
2022/08/23 11:33:14;;;;;;;4.70;1.70;;;29.30;68.70;;;;;;5098239;27;20048;-91
2022/08/23 11:35:44;;;;;;;3.28;1.52;;;29.40;73.90;;;;;;5098469;27;20234;-91
2022/08/23 11:38:11;;;;;;;4.15;2.13;;;29.40;74.30;;;;;;5114517;27;20039;-91
2022/08/23 11:40:55;;;;;;;4.85;1.63;;;29.40;72.20;;;;;;5080601;27;20074;-90
2022/08/23 11:43:36;;;;;;;5.78;1.90;;;29.40;71.30;;;;;;5114290;27;20092;-92
2022/08/23 11:46:26;;;;;;;5.47;1.75;;;29.50;70.20;;;;;;5099991;27;20043;-91
2022/08/23 11:49:10;;;;;;;3.58;1.90;;;29.50;64.30;;;;;;5101002;27;20043;-88
2022/08/23 11:52:05;;;;;;;5.90;1.48;;;29.40;70.80;;;;;;5102663;27;20039;-92
2022/08/23 11:54:56;;;;;;;6.38;1.60;;;29.40;70.50;;;;;;5102902;27;20043;-90
2022/08/23 11:57:25;;;;;;;8.93;2.03;;;29.40;74.70;;;;;;5099018;27;20043;-89
2022/08/23 12:00:11;;;;;;;6.03;1.77;;;29.60;74.60;;;;;;5102737;27;20082;-91
2022/08/23 12:02:37;;;;;;;3.78;1.90;;;29.70;72.80;;;;;;5103667;27;20137;-91
2022/08/23 12:05:21;;;;;;;5.85;2.75;;;29.80;71.30;;;;;;5103972;27;20075;-91
2022/08/23 12:07:59;;;;;;;4.22;1.58;;;29.80;68.40;;;;;;5104833;27;20596;-90
2022/08/23 12:10:40;;;;;;;5.22;1.83;;;29.70;68.40;;;;;;5102842;27;20039;-92
2022/08/23 12:13:20;;;;;;;3.72;1.77;;;30.30;66.60;;;;;;5104358;27;20417;-91
2022/08/23 12:16:28;;;;;;;2.95;1.40;;;30.40;64.00;;;;;;5104846;27;20194;-92
2022/08/23 12:18:57;;;;;;;4.53;1.60;;;30.60;64.00;;;;;;5002205;28;20068;-91
2022/08/23 12:21:28;;;;;;;4.57;2.13;;;30.80;64.90;;;;;;5002363;28;20048;-90
2022/08/23 12:24:02;;;;;;;4.50;1.83;;;30.80;63.50;;;;;;5055275;27;20055;-91
2022/08/23 12:26:40;;;;;;;5.47;1.77;;;30.70;59.60;;;;;;5088271;27;20405;-89
2022/08/23 12:29:21;;;;;;;5.03;2.00;;;30.90;60.60;;;;;;5121607;27;20106;-91
2022/08/23 12:31:59;;;;;;;4.68;1.52;;;30.60;60.40;;;;;;5103585;27;20053;-85
2022/08/23 12:34:25;;;;;;;6.72;2.13;;;30.70;59.00;;;;;;5109204;27;20102;-91
2022/08/23 12:37:09;;;;;;;9.20;2.00;;;30.60;60.40;;;;;;5113268;27;20039;-91
2022/08/23 12:39:52;;;;;;;5.55;2.20;;;30.70;60.60;;;;;;5127099;27;20039;-86
2022/08/23 12:42:38;;;;;;;6.90;1.60;;;30.90;60.50;;;;;;5106136;27;20121;-91
2022/08/23 12:45:17;;;;;;;5.07;1.70;;;30.90;58.50;;;;;;5105228;27;20039;-91
2022/08/23 12:47:56;;;;;;;8.73;2.35;;;30.80;59.50;;;;;;5106311;27;20549;-91
2022/08/23 12:50:38;;;;;;;4.03;1.77;;;30.80;60.70;;;;;;5106627;27;20084;-90
2022/08/23 12:53:07;;;;;;;7.65;1.85;;;30.80;60.00;;;;;;5106088;27;20540;-92
2022/08/23 12:55:41;;;;;;;3.75;2.00;;;30.80;58.10;;;;;;5121820;27;20043;-91
2022/08/23 12:58:08;;;;;;;3.85;1.90;;;30.70;57.00;;;;;;5103251;27;20042;-91
2022/08/23 13:00:42;;;;;;;6.70;2.05;;;30.60;57.10;;;;;;5106385;27;20160;-90
2022/08/23 13:03:22;;;;;;;3.78;1.50;;;31.00;55.30;;;;;;5102282;27;20132;-90
2022/08/23 13:06:07;;;;;;;6.10;1.75;;;31.10;54.20;;;;;;5104250;27;20047;-93
2022/08/23 13:09:03;;;;;;;5.00;1.67;;;30.60;53.50;;;;;;5103646;27;20486;-89
2022/08/23 13:11:33;;;;;;;4.38;1.60;;;30.90;53.20;;;;;;5103088;27;20051;-89
2022/08/23 13:14:00;;;;;;;5.13;1.60;;;30.80;53.60;;;;;;5103559;28;20035;-91
2022/08/23 13:16:27;;;;;;;6.07;1.95;;;30.70;55.00;;;;;;5103852;27;20046;-89